Cruz Bay, VI

3:37 PM AST on May 06, 2015 (GMT -0400)
Luis Munoz Marin International | | Change Station
CLOSE
Current Station
Airport
Location: San Juan,
Elevation: 7 ft
Nearby Weather Stations

Elev 7 ft 18.43 °N, 66.01 °W | Updated 1 hour ago

Scattered Clouds
Scattered Clouds
90 °F
Feels Like 95 °F
N
23
Wind Variable Wind from ENE
Gusts 31 mph

Today
High -- | Low -- °F
--% Chance of Precip.
Yesterday
High -- | Low -- °F
Precip. -- in
5:49 AM 6:42 PM
Waning Gibbous, 93% visible
Pressure 30.03 in
Visibility 9.0 miles
Clouds Scattered Clouds 4500 ft
Heat Index 95 °F
Dew Point 70 °F
Humidity 52%
Rainfall 0.00 in
Snow Depth Not available.
UV 9 out of 12
Pollen Not available.
Air Quality Not available.
Flu Activity Sporadic
METAR TJSJ 061756Z 07020G27KT 9SM SCT045 32/21 A3003 RMK AO2 PK WND 07029/1700 SLP167 HZ ALQDS T03220211 10328 20278 58019

More Conditions Fewer Conditions

Pressure 30.03 in
Visibility 9.0 miles
Clouds Scattered Clouds 4500 ft
Heat Index 95 °F
Dew Point 70 °F
Humidity 52%
Rainfall 0.00 in
Snow Depth Not available.
UV 9 out of 12
Pollen Not available.
Air Quality Not available.
Flu Activity Sporadic
METAR TJSJ 061756Z 07020G27KT 9SM SCT045 32/21 A3003 RMK AO2 PK WND 07029/1700 SLP167 HZ ALQDS T03220211 10328 20278 58019

More Conditions Fewer Conditions

10-Day Weather Forecast

Almanac

Astronomy

May. 06, 2015 Rise Set
Actual Time
Civil Twilight
Nautical Twilight
Astronomical Twilight
Moon
Length of Visible Light
Length of Day
Tomorrow will be .
, % of the Moon is Illuminated

Today's Extremes

State Highs State Lows

Community

WunderPhotos

Upload Photos

1,819,002 photos uploaded!

WunderBlogs® & News

Nearby

Air Quality

  Air Quality AQ Index Pollutant
Not available.

Snow Depth

Station Depth Elevation

Earthquake Activity

City Distance Mag. Time & Date
Minimum magnitude displayed is 2.5.

Coastal Water Temperatures

Place Temperature

Stations

Nearby Weather Stations

Station Location Temp. Windchill Dew Point Humidity Wind Precip. Elev Updated Type